Time;durP1;ratioP1;P1;durP2;ratioP2;P2;SDS_P1;SDS_P2;PMS_P1;PMS_P2;Temp;Humidity;BMP_temperature;BMP_pressure;BME280_temperature;BME280_humidity;BME280_pressure;Samples;Min_cycle;Max_cycle;Signal;HPM_P1;HPM_P2
2021/03/12 00:01:46;;;;;;;9.30;2.60;;;;;;;;;;5050393;28;20582;-79
2021/03/12 00:04:11;;;;;;;9.57;2.50;;;;;;;;;;5049970;28;20187;-78
2021/03/12 00:06:38;;;;;;;9.53;2.60;;;;;;;;;;5051219;28;20713;-77
2021/03/12 00:09:05;;;;;;;6.13;2.20;;;;;;;;;;5051922;28;20178;-80
2021/03/12 00:11:31;;;;;;;9.87;2.40;;;;;;;;;;5055371;28;20204;-77
2021/03/12 00:13:57;;;;;;;9.40;2.60;;;;;;;;;;5056291;28;20545;-77
2021/03/12 00:16:23;;;;;;;6.87;2.47;;;;;;;;;;5053882;28;20284;-77
2021/03/12 00:18:50;;;;;;;10.00;2.90;;;;;;;;;;5054199;28;20174;-78
2021/03/12 00:21:16;;;;;;;11.10;2.70;;;;;;;;;;5053963;28;20174;-77
2021/03/12 00:23:43;;;;;;;9.17;2.63;;;;;;;;;;5059768;28;20186;-78
2021/03/12 00:26:09;;;;;;;6.70;3.00;;;;;;;;;;5054699;28;20209;-77
2021/03/12 00:28:36;;;;;;;4.77;1.93;;;;;;;;;;5062786;28;20181;-79
2021/03/12 00:31:03;;;;;;;4.43;1.90;;;;;;;;;;5061019;28;20190;-77
2021/03/12 00:33:29;;;;;;;3.30;1.50;;;;;;;;;;5060053;28;20251;-77
2021/03/12 00:35:56;;;;;;;1.60;1.50;;;;;;;;;;5059684;28;20213;-77
2021/03/12 00:38:22;;;;;;;3.87;1.77;;;;;;;;;;5060206;28;20183;-77
2021/03/12 00:40:48;;;;;;;2.73;1.60;;;;;;;;;;5060456;28;20178;-78
2021/03/12 00:43:14;;;;;;;3.80;1.90;;;;;;;;;;5076737;28;20244;-78
2021/03/12 00:45:41;;;;;;;3.83;1.60;;;;;;;;;;5060612;28;20564;-77
2021/03/12 00:48:07;;;;;;;4.77;2.20;;;;;;;;;;5062382;28;20182;-77
2021/03/12 00:50:34;;;;;;;4.23;2.33;;;;;;;;;;5061475;28;20191;-77
2021/03/12 00:53:00;;;;;;;5.83;2.73;;;;;;;;;;5060559;28;20228;-77
2021/03/12 00:55:28;;;;;;;3.17;2.07;;;;;;;;;;5061133;28;20253;-78
2021/03/12 00:57:54;;;;;;;5.77;2.33;;;;;;;;;;5059984;28;20173;-77
2021/03/12 01:00:24;;;;;;;5.37;1.97;;;;;;;;;;5060193;28;20178;-78
2021/03/12 01:02:50;;;;;;;4.93;2.50;;;;;;;;;;5060197;28;20647;-77
2021/03/12 01:05:17;;;;;;;5.43;2.10;;;;;;;;;;5060077;28;20186;-77
2021/03/12 01:07:44;;;;;;;6.00;2.73;;;;;;;;;;5060370;28;20220;-77
2021/03/12 01:10:11;;;;;;;5.70;2.77;;;;;;;;;;5060289;28;20268;-77
2021/03/12 01:12:39;;;;;;;4.73;2.50;;;;;;;;;;5058855;28;20178;-78
2021/03/12 01:15:07;;;;;;;4.83;2.40;;;;;;;;;;5043817;28;20209;-77
2021/03/12 01:17:34;;;;;;;6.90;2.90;;;;;;;;;;5044837;28;20239;-77
2021/03/12 01:20:01;;;;;;;5.90;3.13;;;;;;;;;;5060622;28;20182;-76
2021/03/12 01:22:28;;;;;;;8.57;3.20;;;;;;;;;;5042917;28;20189;-77
2021/03/12 01:24:54;;;;;;;8.33;3.60;;;;;;;;;;5059594;28;20276;-78
2021/03/12 01:27:20;;;;;;;5.83;3.50;;;;;;;;;;5053254;28;20198;-80
2021/03/12 01:29:46;;;;;;;12.60;3.23;;;;;;;;;;5053187;28;20182;-77
2021/03/12 01:32:12;;;;;;;9.13;3.40;;;;;;;;;;5053196;28;20189;-78
2021/03/12 01:34:37;;;;;;;9.47;4.10;;;;;;;;;;5052662;28;20206;-77
2021/03/12 01:37:03;;;;;;;10.27;3.70;;;;;;;;;;5052602;28;20320;-77
2021/03/12 01:39:29;;;;;;;7.50;4.00;;;;;;;;;;5052448;28;20178;-77
2021/03/12 01:41:56;;;;;;;6.73;3.90;;;;;;;;;;5052471;28;20182;-77
2021/03/12 01:44:22;;;;;;;8.10;4.07;;;;;;;;;;5052191;28;20228;-78
2021/03/12 01:46:48;;;;;;;8.03;3.80;;;;;;;;;;5052544;28;20220;-77
2021/03/12 01:49:14;;;;;;;10.93;4.20;;;;;;;;;;5052402;28;20281;-76
2021/03/12 01:51:40;;;;;;;8.53;4.00;;;;;;;;;;5052287;28;20190;-76
2021/03/12 01:54:06;;;;;;;8.47;3.70;;;;;;;;;;5051954;28;20573;-77
2021/03/12 01:56:32;;;;;;;7.97;4.30;;;;;;;;;;5052117;28;20619;-77
2021/03/12 01:58:58;;;;;;;9.67;4.90;;;;;;;;;;5052221;28;20231;-76
2021/03/12 02:01:24;;;;;;;8.70;4.30;;;;;;;;;;5051991;28;20182;-77
2021/03/12 02:03:50;;;;;;;10.30;4.83;;;;;;;;;;5052035;28;20237;-76
2021/03/12 02:06:16;;;;;;;8.50;4.70;;;;;;;;;;5051462;28;20224;-76
2021/03/12 02:08:42;;;;;;;11.70;5.30;;;;;;;;;;5052047;28;20186;-76
2021/03/12 02:11:08;;;;;;;9.23;4.67;;;;;;;;;;5051541;28;20189;-76
2021/03/12 02:14:01;;;;;;;9.27;4.77;;;;;;;;;;5051732;28;20297;-76
2021/03/12 02:16:31;;;;;;;9.40;4.17;;;;;;;;;;5036369;28;20213;-76
2021/03/12 02:18:57;;;;;;;7.80;4.60;;;;;;;;;;5051634;28;20174;-76
2021/03/12 02:21:23;;;;;;;11.10;5.00;;;;;;;;;;5068216;28;20224;-76
2021/03/12 02:23:52;;;;;;;11.03;5.07;;;;;;;;;;5068343;28;20274;-76
2021/03/12 02:26:39;;;;;;;7.07;4.30;;;;;;;;;;5052839;28;20206;-76
2021/03/12 02:29:05;;;;;;;8.33;4.10;;;;;;;;;;5044679;28;20275;-76
2021/03/12 02:31:35;;;;;;;10.53;4.23;;;;;;;;;;5053075;28;20235;-77
2021/03/12 02:34:03;;;;;;;10.70;4.43;;;;;;;;;;5087819;23;20225;-79
2021/03/12 02:36:31;;;;;;;6.97;3.63;;;;;;;;;;5071043;28;20206;-79
2021/03/12 02:38:57;;;;;;;9.77;4.27;;;;;;;;;;5071204;28;20181;-79
2021/03/12 02:41:25;;;;;;;7.60;4.07;;;;;;;;;;5054783;28;20653;-79
2021/03/12 02:43:51;;;;;;;9.83;3.67;;;;;;;;;;5054958;28;20684;-78
2021/03/12 02:46:18;;;;;;;8.33;3.80;;;;;;;;;;5055363;28;20213;-79
2021/03/12 02:48:44;;;;;;;6.77;3.43;;;;;;;;;;5055006;28;20181;-79
2021/03/12 02:51:10;;;;;;;7.50;3.20;;;;;;;;;;5054619;28;20647;-79
2021/03/12 02:53:36;;;;;;;7.53;3.23;;;;;;;;;;5054921;28;20639;-79
2021/03/12 02:56:03;;;;;;;6.27;3.10;;;;;;;;;;5071510;28;20188;-79
2021/03/12 02:58:30;;;;;;;9.77;3.37;;;;;;;;;;5054904;28;20223;-79
2021/03/12 03:00:57;;;;;;;6.50;3.27;;;;;;;;;;5054813;28;20201;-79
2021/03/12 03:03:24;;;;;;;9.50;4.00;;;;;;;;;;5071064;28;20571;-79
2021/03/12 03:05:50;;;;;;;8.20;4.13;;;;;;;;;;5054551;28;20180;-78
2021/03/12 03:08:16;;;;;;;13.17;3.80;;;;;;;;;;5054691;28;20192;-79
2021/03/12 03:10:43;;;;;;;7.80;3.77;;;;;;;;;;5054294;28;20271;-79
2021/03/12 03:13:10;;;;;;;5.10;3.47;;;;;;;;;;5054620;28;20213;-79
2021/03/12 03:15:36;;;;;;;8.63;3.23;;;;;;;;;;5069477;28;20333;-79
2021/03/12 03:18:03;;;;;;;7.20;3.63;;;;;;;;;;5054880;28;20342;-79
2021/03/12 03:20:29;;;;;;;8.03;4.20;;;;;;;;;;5054375;28;20181;-78
2021/03/12 03:22:55;;;;;;;9.47;3.93;;;;;;;;;;5053787;28;20668;-79
2021/03/12 03:25:21;;;;;;;16.17;3.73;;;;;;;;;;5054518;28;20202;-79
2021/03/12 03:27:47;;;;;;;9.33;4.07;;;;;;;;;;5070071;28;20178;-79
2021/03/12 03:30:14;;;;;;;8.90;3.03;;;;;;;;;;5071426;28;20183;-79
2021/03/12 03:32:40;;;;;;;8.00;3.43;;;;;;;;;;5071149;28;20184;-79
2021/03/12 03:35:08;;;;;;;11.30;4.13;;;;;;;;;;5054172;28;20213;-78
2021/03/12 03:37:35;;;;;;;6.90;3.50;;;;;;;;;;5054372;28;20177;-79
2021/03/12 03:40:01;;;;;;;10.83;4.13;;;;;;;;;;5054352;28;20232;-78
2021/03/12 03:42:28;;;;;;;8.40;3.77;;;;;;;;;;5071007;28;20681;-78
2021/03/12 03:44:58;;;;;;;6.03;3.20;;;;;;;;;;5054114;28;20594;-79
2021/03/12 03:47:27;;;;;;;8.90;3.47;;;;;;;;;;5056536;28;20902;-79
2021/03/12 03:49:53;;;;;;;9.87;3.90;;;;;;;;;;5058092;28;20326;-78
2021/03/12 03:52:20;;;;;;;7.23;3.07;;;;;;;;;;5058127;28;20177;-77
2021/03/12 03:54:46;;;;;;;9.67;3.53;;;;;;;;;;5074791;28;20223;-77
2021/03/12 03:57:12;;;;;;;7.10;3.70;;;;;;;;;;5074945;28;20680;-78
2021/03/12 03:59:39;;;;;;;9.53;3.83;;;;;;;;;;5057822;28;20615;-77
2021/03/12 04:02:05;;;;;;;7.70;3.50;;;;;;;;;;5074263;28;20216;-77
2021/03/12 04:04:31;;;;;;;12.23;3.90;;;;;;;;;;5074314;28;20201;-78
2021/03/12 04:06:58;;;;;;;10.53;3.73;;;;;;;;;;5057496;28;20245;-78
2021/03/12 04:09:24;;;;;;;12.97;4.30;;;;;;;;;;5057655;28;20191;-78
2021/03/12 04:11:50;;;;;;;8.17;3.63;;;;;;;;;;5074276;28;20256;-77
2021/03/12 04:14:16;;;;;;;9.87;4.20;;;;;;;;;;5057063;28;20213;-77
2021/03/12 04:16:41;;;;;;;9.17;3.70;;;;;;;;;;5057649;28;20244;-77
2021/03/12 04:19:08;;;;;;;15.17;3.87;;;;;;;;;;5058019;28;20583;-78
2021/03/12 04:21:33;;;;;;;7.13;3.73;;;;;;;;;;5074072;28;20578;-78
2021/03/12 04:23:59;;;;;;;6.23;3.40;;;;;;;;;;5057308;28;20684;-77
2021/03/12 04:26:26;;;;;;;7.57;2.63;;;;;;;;;;5057721;28;20180;-77
2021/03/12 04:28:53;;;;;;;9.97;3.00;;;;;;;;;;5074192;28;20173;-78
2021/03/12 04:31:19;;;;;;;7.23;2.80;;;;;;;;;;5057174;28;20196;-77
2021/03/12 04:33:45;;;;;;;8.10;3.27;;;;;;;;;;5057369;28;20222;-77
2021/03/12 04:36:11;;;;;;;7.63;3.20;;;;;;;;;;5075007;28;20181;-77
2021/03/12 04:38:37;;;;;;;7.60;3.30;;;;;;;;;;5073701;28;20717;-78
2021/03/12 04:41:03;;;;;;;12.37;3.30;;;;;;;;;;5073861;28;20188;-78
2021/03/12 04:43:30;;;;;;;9.00;3.30;;;;;;;;;;5056765;28;20205;-77
2021/03/12 04:45:57;;;;;;;7.87;3.23;;;;;;;;;;5057280;28;20275;-78
2021/03/12 04:48:23;;;;;;;10.17;3.20;;;;;;;;;;5057082;28;20189;-77
2021/03/12 04:50:48;;;;;;;10.97;3.20;;;;;;;;;;5073736;28;20181;-78
2021/03/12 04:53:14;;;;;;;10.23;3.20;;;;;;;;;;5073514;28;20250;-78
2021/03/12 04:55:40;;;;;;;9.93;3.53;;;;;;;;;;5073645;28;20635;-77
2021/03/12 04:58:07;;;;;;;7.37;2.80;;;;;;;;;;5056481;28;20675;-77
2021/03/12 05:00:34;;;;;;;10.40;3.33;;;;;;;;;;5074512;28;20177;-77
2021/03/12 05:03:00;;;;;;;4.90;3.33;;;;;;;;;;5056659;28;20668;-78
2021/03/12 05:05:26;;;;;;;9.20;3.53;;;;;;;;;;5073198;28;20247;-77
2021/03/12 05:07:52;;;;;;;11.77;3.27;;;;;;;;;;5056957;28;20177;-77
2021/03/12 05:10:18;;;;;;;9.17;3.60;;;;;;;;;;5056277;28;20170;-78
2021/03/12 05:12:44;;;;;;;6.07;3.07;;;;;;;;;;5073087;28;20177;-77
2021/03/12 05:15:11;;;;;;;9.60;3.33;;;;;;;;;;5056660;28;20209;-78
2021/03/12 05:17:37;;;;;;;8.27;3.00;;;;;;;;;;5073249;28;20239;-77
2021/03/12 05:20:03;;;;;;;8.17;2.77;;;;;;;;;;5056435;28;20580;-77
2021/03/12 05:22:30;;;;;;;7.93;2.90;;;;;;;;;;5056203;28;20185;-77
2021/03/12 05:24:55;;;;;;;9.73;3.13;;;;;;;;;;5056359;28;20193;-77
2021/03/12 05:27:21;;;;;;;9.60;2.97;;;;;;;;;;5056002;28;20185;-78
2021/03/12 05:29:47;;;;;;;7.00;2.90;;;;;;;;;;5045023;28;20198;-78
2021/03/12 05:32:13;;;;;;;10.93;3.23;;;;;;;;;;5044118;28;20186;-78
2021/03/12 05:34:39;;;;;;;8.83;3.20;;;;;;;;;;5044291;28;20218;-78
2021/03/12 05:37:06;;;;;;;9.00;3.17;;;;;;;;;;5060459;28;20204;-78
2021/03/12 05:39:32;;;;;;;9.87;3.10;;;;;;;;;;5043902;28;20181;-78
2021/03/12 05:41:58;;;;;;;8.63;3.00;;;;;;;;;;5043565;28;20188;-78
2021/03/12 05:44:24;;;;;;;6.83;3.53;;;;;;;;;;5043314;28;20268;-78
2021/03/12 05:46:50;;;;;;;5.77;3.07;;;;;;;;;;5044080;28;20197;-78
2021/03/12 05:49:17;;;;;;;8.93;2.90;;;;;;;;;;5058013;28;20186;-78
2021/03/12 05:51:43;;;;;;;10.17;3.33;;;;;;;;;;5080218;28;20185;-78
2021/03/12 05:54:09;;;;;;;10.43;3.63;;;;;;;;;;5043361;28;20304;-78
2021/03/12 05:56:35;;;;;;;10.03;3.00;;;;;;;;;;5043063;28;20611;-78
2021/03/12 05:59:05;;;;;;;7.53;3.20;;;;;;;;;;5054731;28;20181;-75
2021/03/12 06:01:31;;;;;;;8.33;2.67;;;;;;;;;;5065591;28;20608;-76
2021/03/12 06:03:57;;;;;;;8.90;3.23;;;;;;;;;;5048722;28;20356;-76
2021/03/12 06:06:26;;;;;;;7.97;3.30;;;;;;;;;;5035934;28;20562;-76
2021/03/12 06:08:52;;;;;;;8.77;3.30;;;;;;;;;;5052438;28;20240;-76
2021/03/12 06:11:18;;;;;;;9.90;3.23;;;;;;;;;;5051910;28;20204;-76
2021/03/12 06:13:54;;;;;;;10.17;3.20;;;;;;;;;;5052723;28;20764;-77
2021/03/12 06:16:21;;;;;;;11.10;3.50;;;;;;;;;;5035513;28;20185;-77
2021/03/12 06:18:47;;;;;;;9.13;3.07;;;;;;;;;;5068587;28;20606;-77
2021/03/12 06:21:28;;;;;;;11.53;3.60;;;;;;;;;;5052014;28;20174;-77
2021/03/12 06:23:54;;;;;;;10.60;3.67;;;;;;;;;;5052527;28;20205;-76
2021/03/12 06:26:21;;;;;;;9.70;3.47;;;;;;;;;;5053486;28;20260;-77
2021/03/12 06:28:49;;;;;;;8.47;3.40;;;;;;;;;;5053814;28;20327;-76
2021/03/12 06:31:30;;;;;;;11.40;3.87;;;;;;;;;;5071311;28;20556;-77
2021/03/12 06:34:07;;;;;;;10.90;3.70;;;;;;;;;;5054502;28;20232;-76
2021/03/12 06:36:33;;;;;;;9.70;4.13;;;;;;;;;;5054749;28;20185;-76
2021/03/12 06:38:59;;;;;;;10.20;4.17;;;;;;;;;;5054537;28;20177;-76
2021/03/12 06:41:41;;;;;;;10.50;3.67;;;;;;;;;;5071051;28;20185;-76
2021/03/12 06:44:25;;;;;;;13.03;3.97;;;;;;;;;;5070884;28;20237;-75
2021/03/12 06:46:51;;;;;;;13.73;4.33;;;;;;;;;;5071443;28;20191;-79
2021/03/12 06:49:17;;;;;;;11.33;4.10;;;;;;;;;;5058207;28;20185;-77
2021/03/12 06:51:53;;;;;;;9.30;3.73;;;;;;;;;;5054221;28;20181;-76
2021/03/12 06:54:19;;;;;;;16.00;4.60;;;;;;;;;;5071633;28;20287;-76
2021/03/12 06:56:45;;;;;;;8.53;3.90;;;;;;;;;;5054616;28;20706;-75
2021/03/12 06:59:12;;;;;;;12.23;4.40;;;;;;;;;;5054433;28;20264;-79
2021/03/12 07:01:38;;;;;;;6.27;3.90;;;;;;;;;;5056326;28;20185;-76
2021/03/12 07:04:14;;;;;;;9.73;4.20;;;;;;;;;;5077286;28;20205;-79
2021/03/12 07:06:46;;;;;;;8.77;3.63;;;;;;;;;;5073158;28;20181;-75
2021/03/12 07:09:13;;;;;;;9.63;3.50;;;;;;;;;;5054314;28;20188;-74
2021/03/12 07:11:39;;;;;;;10.93;3.03;;;;;;;;;;5053925;28;20646;-75
2021/03/12 07:14:05;;;;;;;9.37;2.50;;;;;;;;;;5071298;28;20210;-75
2021/03/12 07:16:31;;;;;;;11.97;3.63;;;;;;;;;;5064666;28;20178;-75
2021/03/12 07:18:57;;;;;;;12.13;2.80;;;;;;;;;;5063926;28;20185;-76
2021/03/12 07:21:25;;;;;;;16.27;2.47;;;;;;;;;;5069208;28;20196;-74
2021/03/12 07:23:58;;;;;;;8.33;2.43;;;;;;;;;;5070675;28;20631;-75
2021/03/12 07:26:24;;;;;;;11.07;2.50;;;;;;;;;;5071629;28;20219;-74
2021/03/12 07:28:53;;;;;;;10.17;1.97;;;;;;;;;;5070617;28;20184;-75
2021/03/12 07:31:19;;;;;;;12.00;2.27;;;;;;;;;;5069970;28;20184;-75
2021/03/12 07:33:51;;;;;;;8.37;2.10;;;;;;;;;;5052697;28;20237;-75
2021/03/12 07:36:23;;;;;;;8.23;1.80;;;;;;;;;;5050433;28;20178;-75
2021/03/12 07:38:49;;;;;;;10.83;2.17;;;;;;;;;;5057384;28;20184;-75
2021/03/12 07:41:15;;;;;;;10.33;1.93;;;;;;;;;;5036689;28;20186;-75
2021/03/12 07:43:41;;;;;;;8.70;2.10;;;;;;;;;;5071497;28;20304;-75
2021/03/12 07:46:07;;;;;;;12.63;2.17;;;;;;;;;;5053615;28;20217;-75
2021/03/12 07:48:33;;;;;;;7.53;2.10;;;;;;;;;;5070331;28;20578;-74
2021/03/12 07:51:11;;;;;;;11.40;1.93;;;;;;;;;;5070026;28;20220;-75
2021/03/12 07:53:44;;;;;;;8.70;1.90;;;;;;;;;;5069929;28;20314;-75
2021/03/12 07:56:12;;;;;;;9.00;2.27;;;;;;;;;;5071261;28;20182;-75
2021/03/12 07:58:55;;;;;;;11.23;1.87;;;;;;;;;;5070414;28;20178;-75
2021/03/12 08:01:21;;;;;;;7.77;1.90;;;;;;;;;;5053491;28;20288;-75
2021/03/12 08:03:49;;;;;;;9.23;1.67;;;;;;;;;;5069830;28;20469;-75
2021/03/12 08:06:18;;;;;;;10.23;2.00;;;;;;;;;;5050386;28;20743;-75
2021/03/12 08:08:44;;;;;;;7.10;2.03;;;;;;;;;;5051293;28;20174;-75
2021/03/12 08:11:30;;;;;;;13.97;2.37;;;;;;;;;;5033359;28;20535;-75
2021/03/12 08:14:08;;;;;;;9.70;2.13;;;;;;;;;;5077267;28;20208;-75
2021/03/12 08:16:35;;;;;;;9.50;2.43;;;;;;;;;;5063873;28;20193;-78
2021/03/12 08:19:19;;;;;;;8.37;1.90;;;;;;;;;;5041947;28;20562;-77
2021/03/12 08:21:45;;;;;;;11.30;2.87;;;;;;;;;;5057796;28;20186;-76
2021/03/12 08:24:30;;;;;;;11.43;2.60;;;;;;;;;;5053424;28;20556;-76
2021/03/12 08:26:56;;;;;;;9.17;2.57;;;;;;;;;;5070955;28;20557;-76
2021/03/12 08:29:31;;;;;;;8.10;2.67;;;;;;;;;;5070205;28;20178;-76
2021/03/12 08:31:57;;;;;;;8.40;1.83;;;;;;;;;;5049515;28;20194;-75
2021/03/12 08:34:42;;;;;;;9.43;2.43;;;;;;;;;;5063271;23;20321;-75
2021/03/12 08:37:26;;;;;;;11.93;2.67;;;;;;;;;;5068312;28;20182;-75
2021/03/12 08:40:11;;;;;;;8.63;2.47;;;;;;;;;;5054888;28;20226;-75
2021/03/12 08:42:53;;;;;;;9.53;2.87;;;;;;;;;;5079900;28;20178;-75
2021/03/12 08:45:32;;;;;;;12.73;2.77;;;;;;;;;;5073324;28;20276;-75
2021/03/12 08:48:05;;;;;;;12.47;3.43;;;;;;;;;;5073119;28;20183;-78
2021/03/12 08:50:31;;;;;;;6.63;2.10;;;;;;;;;;5059267;28;20187;-76
2021/03/12 08:52:57;;;;;;;9.80;3.23;;;;;;;;;;5068740;28;20209;-76
2021/03/12 08:55:23;;;;;;;10.70;3.20;;;;;;;;;;5056011;28;20315;-74
2021/03/12 08:57:49;;;;;;;9.27;2.73;;;;;;;;;;5081804;28;20188;-74
2021/03/12 09:00:16;;;;;;;9.70;3.00;;;;;;;;;;5092149;28;20203;-75
2021/03/12 09:02:42;;;;;;;11.83;2.33;;;;;;;;;;5093244;28;20173;-75
2021/03/12 09:05:24;;;;;;;8.57;3.07;;;;;;;;;;5076181;28;20207;-76
2021/03/12 09:07:56;;;;;;;9.73;3.07;;;;;;;;;;5076355;28;20177;-75
2021/03/12 09:10:24;;;;;;;14.07;3.20;;;;;;;;;;5093509;28;20664;-75
2021/03/12 09:12:50;;;;;;;9.90;2.70;;;;;;;;;;5093138;28;20197;-75
2021/03/12 09:15:25;;;;;;;12.20;3.00;;;;;;;;;;5076150;28;20278;-74
2021/03/12 09:17:57;;;;;;;10.63;3.40;;;;;;;;;;5073241;28;20181;-75
2021/03/12 09:20:24;;;;;;;13.27;3.30;;;;;;;;;;5085989;28;20180;-75
2021/03/12 09:22:53;;;;;;;7.53;3.03;;;;;;;;;;5073255;28;20550;-76
2021/03/12 09:25:32;;;;;;;11.20;3.40;;;;;;;;;;5072872;28;20231;-74
2021/03/12 09:28:01;;;;;;;10.23;3.33;;;;;;;;;;5076739;28;20205;-74
2021/03/12 09:30:28;;;;;;;8.80;2.80;;;;;;;;;;5064695;28;20222;-74
2021/03/12 09:32:54;;;;;;;12.27;3.40;;;;;;;;;;5061070;28;20664;-75
2021/03/12 09:35:20;;;;;;;11.37;4.10;;;;;;;;;;5046883;28;20221;-76
2021/03/12 09:37:46;;;;;;;11.53;3.40;;;;;;;;;;5056377;28;20215;-76
2021/03/12 09:40:31;;;;;;;15.70;4.10;;;;;;;;;;5072686;28;20238;-75
2021/03/12 09:42:57;;;;;;;8.83;3.37;;;;;;;;;;5073612;28;20288;-75
2021/03/12 09:45:23;;;;;;;7.73;3.03;;;;;;;;;;5055428;28;20238;-75
2021/03/12 09:47:50;;;;;;;8.53;3.67;;;;;;;;;;5055726;28;20239;-75
2021/03/12 09:50:16;;;;;;;7.17;2.63;;;;;;;;;;5055636;28;20191;-75
2021/03/12 09:52:42;;;;;;;12.57;4.00;;;;;;;;;;5071768;28;20639;-75
2021/03/12 09:55:09;;;;;;;12.63;3.70;;;;;;;;;;5055104;28;20226;-75
2021/03/12 09:57:35;;;;;;;9.70;3.80;;;;;;;;;;5071833;28;20219;-75
2021/03/12 10:00:01;;;;;;;8.97;3.77;;;;;;;;;;5055256;28;20201;-76
2021/03/12 10:02:27;;;;;;;9.90;3.20;;;;;;;;;;5055350;28;20179;-76
2021/03/12 10:05:00;;;;;;;8.13;2.40;;;;;;;;;;5073111;28;20706;-76
2021/03/12 10:07:35;;;;;;;8.30;2.60;;;;;;;;;;5051990;28;20277;-75
2021/03/12 10:10:06;;;;;;;10.90;3.23;;;;;;;;;;5051257;28;20212;-76
2021/03/12 10:12:33;;;;;;;8.37;2.47;;;;;;;;;;5050704;28;20627;-77
2021/03/12 10:15:08;;;;;;;10.57;2.83;;;;;;;;;;5034644;28;20307;-76
2021/03/12 10:17:41;;;;;;;9.53;2.80;;;;;;;;;;5051899;28;20180;-76
2021/03/12 10:20:11;;;;;;;8.83;2.63;;;;;;;;;;5035164;28;20179;-76
2021/03/12 10:22:43;;;;;;;6.00;2.30;;;;;;;;;;5051403;28;20178;-76
2021/03/12 10:25:22;;;;;;;10.93;2.90;;;;;;;;;;5051620;28;20205;-76
2021/03/12 10:27:55;;;;;;;7.93;2.73;;;;;;;;;;5052073;28;20220;-76
2021/03/12 10:30:31;;;;;;;10.87;2.40;;;;;;;;;;5035010;28;20180;-76
2021/03/12 10:32:58;;;;;;;10.37;2.80;;;;;;;;;;5034888;28;20543;-76
2021/03/12 10:35:25;;;;;;;9.43;2.50;;;;;;;;;;5051391;28;20210;-76
2021/03/12 10:37:52;;;;;;;10.17;2.67;;;;;;;;;;5034293;28;20179;-76
2021/03/12 10:40:18;;;;;;;9.00;2.60;;;;;;;;;;5051282;28;20178;-76
2021/03/12 10:42:44;;;;;;;11.53;2.40;;;;;;;;;;5050919;28;20176;-76
2021/03/12 10:45:11;;;;;;;7.80;2.97;;;;;;;;;;5050847;28;20255;-76
2021/03/12 10:47:37;;;;;;;7.83;2.97;;;;;;;;;;5034654;28;20180;-76
2021/03/12 10:50:19;;;;;;;10.53;2.87;;;;;;;;;;5051097;28;20594;-76
2021/03/12 10:52:45;;;;;;;6.60;2.77;;;;;;;;;;5051914;28;20259;-76
2021/03/12 10:55:11;;;;;;;7.13;3.30;;;;;;;;;;5051446;28;20294;-76
2021/03/12 10:57:41;;;;;;;10.47;3.20;;;;;;;;;;5051120;28;20206;-76
2021/03/12 11:00:08;;;;;;;12.43;3.00;;;;;;;;;;5034133;28;20620;-77
2021/03/12 11:02:35;;;;;;;10.43;3.07;;;;;;;;;;5050737;28;20182;-77
2021/03/12 11:05:01;;;;;;;10.43;3.43;;;;;;;;;;5050816;28;20273;-76
2021/03/12 11:07:27;;;;;;;10.90;3.47;;;;;;;;;;5051605;28;20676;-76
2021/03/12 11:09:53;;;;;;;13.03;3.33;;;;;;;;;;5051126;28;20178;-76
2021/03/12 11:12:19;;;;;;;9.67;3.10;;;;;;;;;;5051814;28;20205;-77
2021/03/12 11:14:46;;;;;;;8.37;2.67;;;;;;;;;;5066721;28;20210;-76
2021/03/12 11:17:12;;;;;;;8.03;2.70;;;;;;;;;;5054761;28;20576;-76
2021/03/12 11:19:39;;;;;;;8.37;2.57;;;;;;;;;;5071015;28;20174;-77
2021/03/12 11:22:05;;;;;;;13.90;3.37;;;;;;;;;;5069168;28;20666;-76
2021/03/12 11:24:31;;;;;;;9.97;3.40;;;;;;;;;;5070313;28;20213;-76
2021/03/12 11:26:57;;;;;;;8.60;2.73;;;;;;;;;;5069204;28;20190;-77
2021/03/12 11:29:24;;;;;;;10.87;3.20;;;;;;;;;;5040674;28;20573;-77
2021/03/12 11:31:51;;;;;;;16.47;3.10;;;;;;;;;;5048747;28;20184;-77
2021/03/12 11:34:17;;;;;;;7.77;2.20;;;;;;;;;;5051941;28;20221;-76
2021/03/12 11:36:43;;;;;;;9.10;2.60;;;;;;;;;;5064667;28;20182;-76
2021/03/12 11:39:09;;;;;;;8.17;2.03;;;;;;;;;;5070810;28;20177;-76
2021/03/12 11:41:37;;;;;;;8.97;2.13;;;;;;;;;;5050343;28;20178;-75
2021/03/12 11:44:03;;;;;;;5.77;2.10;;;;;;;;;;5050777;28;20651;-75
2021/03/12 11:46:29;;;;;;;7.67;2.73;;;;;;;;;;5056283;28;20280;-75
2021/03/12 11:48:55;;;;;;;7.93;2.70;;;;;;;;;;5045446;28;20193;-75
2021/03/12 11:51:21;;;;;;;7.40;2.60;;;;;;;;;;5068910;28;20184;-75
2021/03/12 11:53:46;;;;;;;7.93;2.70;;;;;;;;;;5068233;28;20213;-75
2021/03/12 11:56:12;;;;;;;10.83;3.20;;;;;;;;;;5069059;28;20798;-74
2021/03/12 11:58:38;;;;;;;10.10;3.33;;;;;;;;;;5068731;28;20603;-75
2021/03/12 12:01:05;;;;;;;6.10;2.47;;;;;;;;;;5069490;28;20177;-75
2021/03/12 12:03:31;;;;;;;7.37;3.37;;;;;;;;;;5068795;28;20178;-75
2021/03/12 12:05:57;;;;;;;9.03;3.30;;;;;;;;;;5051904;28;20209;-75
2021/03/12 12:08:23;;;;;;;9.87;3.13;;;;;;;;;;5071480;28;20180;-75
2021/03/12 12:10:49;;;;;;;8.63;3.20;;;;;;;;;;5074120;28;20188;-75
2021/03/12 12:13:15;;;;;;;5.00;3.27;;;;;;;;;;5074095;28;20209;-75
2021/03/12 12:15:41;;;;;;;12.00;2.77;;;;;;;;;;5075658;28;20235;-76
2021/03/12 12:18:10;;;;;;;12.93;2.93;;;;;;;;;;5075092;28;20181;-75
2021/03/12 12:20:42;;;;;;;9.23;3.20;;;;;;;;;;5076038;28;20235;-75
2021/03/12 12:23:08;;;;;;;6.40;2.60;;;;;;;;;;5057340;28;20176;-77
2021/03/12 12:25:34;;;;;;;9.50;2.20;;;;;;;;;;5071805;28;20617;-75
2021/03/12 12:28:00;;;;;;;9.27;1.97;;;;;;;;;;5055223;28;20173;-76
2021/03/12 12:30:26;;;;;;;6.17;1.73;;;;;;;;;;5072669;28;20169;-75
2021/03/12 12:32:52;;;;;;;7.23;2.20;;;;;;;;;;5071514;28;20185;-75
2021/03/12 12:35:18;;;;;;;8.93;2.30;;;;;;;;;;5072003;28;20213;-76
2021/03/12 12:37:44;;;;;;;7.03;2.10;;;;;;;;;;5072174;28;20196;-76
2021/03/12 12:40:12;;;;;;;7.90;2.03;;;;;;;;;;5072667;28;20177;-76
2021/03/12 12:42:38;;;;;;;6.53;1.90;;;;;;;;;;5071956;28;20200;-77
2021/03/12 12:45:05;;;;;;;7.87;2.00;;;;;;;;;;5071663;28;20200;-76
2021/03/12 12:47:31;;;;;;;8.13;2.00;;;;;;;;;;5073015;28;20178;-76
2021/03/12 12:49:57;;;;;;;7.80;2.50;;;;;;;;;;5071881;28;20216;-75
2021/03/12 12:52:23;;;;;;;9.57;2.43;;;;;;;;;;5056010;28;20209;-75
2021/03/12 12:54:49;;;;;;;8.53;2.17;;;;;;;;;;5071215;28;20635;-75
2021/03/12 12:57:16;;;;;;;7.63;2.30;;;;;;;;;;5071625;28;20173;-75
2021/03/12 12:59:42;;;;;;;7.83;2.03;;;;;;;;;;5054861;28;20239;-75
2021/03/12 13:02:08;;;;;;;12.57;2.50;;;;;;;;;;5071074;28;20175;-75
2021/03/12 13:04:34;;;;;;;11.50;2.10;;;;;;;;;;5054447;28;20228;-74
2021/03/12 13:07:00;;;;;;;6.87;1.87;;;;;;;;;;5071072;28;20205;-74
2021/03/12 13:09:26;;;;;;;12.97;1.90;;;;;;;;;;5072512;28;20661;-74
2021/03/12 13:11:52;;;;;;;11.13;1.93;;;;;;;;;;5072118;28;20173;-74
2021/03/12 13:14:18;;;;;;;6.17;1.47;;;;;;;;;;5054295;28;20217;-74
2021/03/12 13:16:44;;;;;;;8.23;1.80;;;;;;;;;;5070893;28;20180;-74
2021/03/12 13:19:10;;;;;;;8.97;1.53;;;;;;;;;;5070746;28;20179;-74
2021/03/12 13:21:36;;;;;;;8.50;1.90;;;;;;;;;;5071026;28;20168;-74
2021/03/12 13:24:02;;;;;;;8.67;2.10;;;;;;;;;;5072161;28;20204;-74
2021/03/12 13:26:28;;;;;;;9.33;2.13;;;;;;;;;;5070684;28;20277;-74
2021/03/12 13:28:54;;;;;;;7.37;2.17;;;;;;;;;;5054005;28;20211;-75
2021/03/12 13:31:20;;;;;;;9.20;2.03;;;;;;;;;;5070404;28;20185;-75
2021/03/12 13:33:47;;;;;;;9.77;2.20;;;;;;;;;;5070543;28;20201;-75
2021/03/12 13:36:13;;;;;;;4.00;1.37;;;;;;;;;;5070606;28;20281;-76
2021/03/12 13:38:39;;;;;;;9.13;2.40;;;;;;;;;;5054143;28;20359;-76
2021/03/12 13:41:05;;;;;;;7.43;1.77;;;;;;;;;;5070273;28;20260;-76
2021/03/12 13:43:31;;;;;;;10.83;2.00;;;;;;;;;;5071268;28;20857;-75
2021/03/12 13:45:57;;;;;;;6.53;1.93;;;;;;;;;;5070548;28;20268;-76
2021/03/12 13:48:23;;;;;;;7.50;1.97;;;;;;;;;;5070364;28;20226;-76
2021/03/12 13:50:49;;;;;;;9.10;1.90;;;;;;;;;;5053594;28;20217;-75
2021/03/12 13:53:17;;;;;;;8.77;2.10;;;;;;;;;;5071557;28;20178;-76
2021/03/12 13:55:43;;;;;;;9.67;2.00;;;;;;;;;;5070373;28;20201;-75
2021/03/12 13:58:11;;;;;;;5.20;1.80;;;;;;;;;;5071301;28;20178;-75
2021/03/12 14:00:38;;;;;;;7.90;2.10;;;;;;;;;;5054581;28;20186;-75
2021/03/12 14:03:04;;;;;;;11.20;2.27;;;;;;;;;;5055558;28;20702;-74
2021/03/12 14:05:30;;;;;;;7.73;1.93;;;;;;;;;;5073263;28;20221;-77
2021/03/12 14:07:56;;;;;;;8.73;2.30;;;;;;;;;;5055263;28;20689;-75
2021/03/12 14:10:22;;;;;;;6.87;1.57;;;;;;;;;;5072064;28;20531;-75
2021/03/12 14:12:48;;;;;;;12.47;2.10;;;;;;;;;;5072365;28;20204;-75
2021/03/12 14:15:14;;;;;;;9.77;3.33;;;;;;;;;;5074057;28;20215;-76
2021/03/12 14:17:40;;;;;;;8.13;2.50;;;;;;;;;;5057289;28;20182;-77
2021/03/12 14:20:06;;;;;;;9.03;2.30;;;;;;;;;;5052984;28;20178;-76
2021/03/12 14:22:32;;;;;;;11.57;2.83;;;;;;;;;;5072139;28;20184;-76
2021/03/12 14:24:58;;;;;;;7.70;2.67;;;;;;;;;;5072103;28;20673;-76
2021/03/12 14:27:24;;;;;;;10.70;2.97;;;;;;;;;;5071347;28;20216;-75
2021/03/12 14:29:50;;;;;;;8.30;3.33;;;;;;;;;;5071960;28;20178;-78
2021/03/12 14:32:16;;;;;;;11.63;2.90;;;;;;;;;;5050761;28;20208;-75
2021/03/12 14:34:43;;;;;;;10.17;3.33;;;;;;;;;;5058051;28;20225;-75
2021/03/12 14:37:09;;;;;;;9.43;2.70;;;;;;;;;;5071035;28;20201;-76
2021/03/12 14:39:34;;;;;;;10.67;2.20;;;;;;;;;;5054237;28;20526;-76
2021/03/12 14:42:01;;;;;;;9.70;2.30;;;;;;;;;;5054153;28;20173;-76